Time;durP1;ratioP1;P1;durP2;ratioP2;P2;SDS_P1;SDS_P2;PMS_P1;PMS_P2;Temp;Humidity;BMP_temperature;BMP_pressure;BME280_temperature;BME280_humidity;BME280_pressure;Samples;Min_cycle;Max_cycle;Signal;HPM_P1;HPM_P2
2022/08/28 00:02:23;;;;;;;0.88;0.35;;;29.40;33.80;;;;;;5089238;28;20097;-67
2022/08/28 00:04:50;;;;;;;0.43;0.15;;;29.40;33.80;;;;;;5089545;28;20050;-67
2022/08/28 00:07:18;;;;;;;0.95;0.20;;;29.30;33.70;;;;;;5092746;28;20086;-67
2022/08/28 00:09:46;;;;;;;1.30;0.40;;;29.30;33.80;;;;;;5094006;28;20044;-66
2022/08/28 00:12:13;;;;;;;0.40;0.20;;;29.30;33.80;;;;;;5089230;28;20212;-65
2022/08/28 00:14:40;;;;;;;1.45;0.20;;;29.30;34.50;;;;;;5087761;28;20047;-66
2022/08/28 00:17:08;;;;;;;0.95;0.35;;;29.30;33.80;;;;;;5089462;28;20040;-65
2022/08/28 00:19:35;;;;;;;0.30;0.10;;;29.30;33.90;;;;;;5088996;28;20135;-68
2022/08/28 00:22:03;;;;;;;1.15;0.35;;;29.30;33.90;;;;;;5089032;28;20048;-67
2022/08/28 00:24:30;;;;;;;0.35;0.20;;;29.30;34.00;;;;;;5063135;28;20140;-67
2022/08/28 00:29:43;;;;;;;0.63;0.35;;;29.30;33.90;;;;;;5081254;28;20050;-65
2022/08/28 00:32:10;;;;;;;2.38;0.20;;;29.20;34.00;;;;;;5088693;28;20127;-67
2022/08/28 00:34:38;;;;;;;3.45;0.22;;;29.20;33.90;;;;;;5088673;28;20048;-65
2022/08/28 00:37:06;;;;;;;1.42;0.30;;;29.20;33.90;;;;;;5088593;28;20451;-67
2022/08/28 00:39:33;;;;;;;1.20;0.15;;;29.20;34.00;;;;;;5088310;28;20072;-67
2022/08/28 00:42:01;;;;;;;2.42;0.38;;;29.20;34.00;;;;;;5088357;28;20044;-64
2022/08/28 00:44:29;;;;;;;1.33;0.20;;;29.20;34.00;;;;;;5088302;28;20052;-65
2022/08/28 00:46:58;;;;;;;0.20;0.10;;;29.20;34.10;;;;;;5088389;28;20043;-65
2022/08/28 00:49:28;;;;;;;0.93;0.17;;;29.20;34.10;;;;;;5091227;28;20123;-65
2022/08/28 00:52:07;;;;;;;2.40;0.57;;;29.20;34.10;;;;;;5093705;28;20040;-65
2022/08/28 00:54:38;;;;;;;0.20;0.10;;;29.20;34.10;;;;;;5071873;28;20028;-65
2022/08/28 00:57:13;;;;;;;0.40;0.10;;;29.10;34.10;;;;;;5096271;28;20039;-66
2022/08/28 00:59:40;;;;;;;5.68;0.22;;;29.10;34.10;;;;;;5095686;28;20048;-65
2022/08/28 01:02:08;;;;;;;0.85;0.65;;;29.10;34.10;;;;;;5089971;28;20044;-65
2022/08/28 01:04:37;;;;;;;1.17;0.20;;;29.10;34.20;;;;;;5088177;28;20047;-65
2022/08/28 01:07:07;;;;;;;0.43;0.20;;;29.10;34.20;;;;;;5089391;28;20059;-64
2022/08/28 01:09:37;;;;;;;1.20;0.35;;;29.10;34.20;;;;;;5094090;28;20138;-67
2022/08/28 01:12:10;;;;;;;0.55;0.30;;;29.10;34.30;;;;;;5069560;28;20447;-66
2022/08/28 01:14:39;;;;;;;0.22;0.20;;;29.10;34.20;;;;;;5085603;28;20067;-66
2022/08/28 01:17:09;;;;;;;1.00;0.10;;;29.10;34.30;;;;;;5088014;28;20138;-66
2022/08/28 01:19:40;;;;;;;0.52;0.10;;;29.00;34.30;;;;;;5093209;28;20101;-67
2022/08/28 01:22:17;;;;;;;3.42;0.13;;;29.00;34.30;;;;;;5087879;28;20044;-66
2022/08/28 01:24:48;;;;;;;0.20;0.20;;;29.10;34.50;;;;;;5072549;28;20044;-66
2022/08/28 01:27:15;;;;;;;0.28;0.22;;;29.00;34.50;;;;;;5087050;28;20093;-66
2022/08/28 01:29:43;;;;;;;1.75;0.17;;;29.00;34.40;;;;;;5087910;28;20460;-66
2022/08/28 01:32:10;;;;;;;1.63;0.45;;;29.00;34.50;;;;;;5087976;28;20040;-66
2022/08/28 01:34:37;;;;;;;1.27;0.20;;;29.00;34.60;;;;;;5087908;28;20043;-66
2022/08/28 01:37:04;;;;;;;2.38;0.20;;;29.00;34.50;;;;;;5078120;28;20036;-66
2022/08/28 01:39:31;;;;;;;1.35;0.13;;;29.00;34.60;;;;;;5087518;28;20036;-67
2022/08/28 01:42:02;;;;;;;0.65;0.10;;;29.00;34.60;;;;;;5087332;28;20126;-66
2022/08/28 01:44:29;;;;;;;0.85;0.30;;;28.90;34.60;;;;;;5087504;28;20040;-66
2022/08/28 01:46:57;;;;;;;3.70;0.10;;;28.90;34.60;;;;;;5087609;28;20043;-66
2022/08/28 01:49:28;;;;;;;0.90;0.20;;;28.90;34.70;;;;;;5087353;28;20040;-66
2022/08/28 01:51:56;;;;;;;4.57;0.75;;;28.90;34.80;;;;;;5100298;28;20040;-66
2022/08/28 01:54:24;;;;;;;0.20;0.10;;;28.90;34.80;;;;;;5088710;28;20044;-65
2022/08/28 01:56:51;;;;;;;0.57;0.10;;;28.90;34.80;;;;;;5095769;28;20415;-66
2022/08/28 01:59:20;;;;;;;0.57;0.10;;;28.90;34.90;;;;;;5087242;28;20036;-66
2022/08/28 02:01:47;;;;;;;2.75;0.10;;;28.90;34.90;;;;;;5086899;28;20040;-70
2022/08/28 02:04:15;;;;;;;0.68;0.20;;;28.90;34.90;;;;;;5087136;28;20044;-67
2022/08/28 02:06:42;;;;;;;2.72;0.80;;;28.80;34.90;;;;;;5087535;28;20044;-69
2022/08/28 02:09:10;;;;;;;0.82;0.40;;;28.80;35.00;;;;;;5089361;28;20115;-68
2022/08/28 02:11:38;;;;;;;0.55;0.10;;;28.80;35.00;;;;;;5087396;28;20044;-67
2022/08/28 02:14:05;;;;;;;0.40;0.10;;;28.80;35.10;;;;;;5087489;28;20539;-70
2022/08/28 02:16:34;;;;;;;2.90;0.17;;;28.80;35.10;;;;;;5087575;28;20044;-69
2022/08/28 02:19:01;;;;;;;0.50;0.10;;;28.80;35.10;;;;;;5092370;28;20411;-70
2022/08/28 02:21:28;;;;;;;0.52;0.10;;;28.80;35.20;;;;;;5091006;28;20036;-70
2022/08/28 02:23:55;;;;;;;1.30;0.25;;;28.70;35.10;;;;;;5092555;28;20128;-68
2022/08/28 02:26:23;;;;;;;0.52;0.10;;;28.80;35.30;;;;;;5095686;28;20040;-65
2022/08/28 02:28:50;;;;;;;0.47;0.10;;;28.80;35.30;;;;;;5090140;28;20043;-65
2022/08/28 02:31:17;;;;;;;0.50;0.50;;;28.70;35.30;;;;;;5095611;28;20123;-67
2022/08/28 02:33:46;;;;;;;0.90;0.20;;;28.70;35.30;;;;;;5088686;28;20139;-67
2022/08/28 02:36:15;;;;;;;0.88;0.10;;;28.70;35.30;;;;;;5087084;28;20051;-68
2022/08/28 02:38:43;;;;;;;0.35;0.20;;;28.80;35.40;;;;;;5089687;28;20032;-68
2022/08/28 02:41:11;;;;;;;0.35;0.10;;;28.80;35.50;;;;;;5090954;28;20445;-68
2022/08/28 02:43:39;;;;;;;0.70;0.10;;;28.90;35.60;;;;;;5090918;28;20578;-68
2022/08/28 02:46:06;;;;;;;0.38;0.10;;;28.90;35.50;;;;;;5090584;28;20117;-68
2022/08/28 02:48:39;;;;;;;1.00;0.10;;;28.90;35.50;;;;;;5096945;28;20032;-69
2022/08/28 02:51:10;;;;;;;0.85;0.10;;;28.90;35.40;;;;;;5090269;28;20043;-69
2022/08/28 02:53:38;;;;;;;2.33;0.20;;;28.90;35.50;;;;;;5085279;28;20048;-69
2022/08/28 02:56:05;;;;;;;1.00;0.10;;;28.90;35.40;;;;;;5098708;28;20039;-69
2022/08/28 02:58:34;;;;;;;2.65;0.38;;;28.90;35.40;;;;;;5089500;28;20461;-68
2022/08/28 03:01:02;;;;;;;4.30;0.20;;;28.90;35.40;;;;;;5090191;28;20081;-70
2022/08/28 03:03:31;;;;;;;1.35;0.30;;;28.90;35.40;;;;;;5072227;28;20447;-70
2022/08/28 03:05:58;;;;;;;1.05;0.20;;;28.90;35.50;;;;;;5090120;28;20051;-69
2022/08/28 03:08:27;;;;;;;0.52;0.20;;;28.80;35.50;;;;;;5089703;28;20509;-69
2022/08/28 03:10:54;;;;;;;1.90;0.30;;;28.80;35.50;;;;;;5098651;28;20491;-69
2022/08/28 03:13:22;;;;;;;1.15;0.10;;;28.80;35.60;;;;;;5090217;28;20044;-69
2022/08/28 03:15:49;;;;;;;0.40;0.10;;;28.80;35.60;;;;;;5090174;28;20046;-69
2022/08/28 03:18:18;;;;;;;0.40;0.40;;;28.80;35.70;;;;;;5090208;28;20131;-69
2022/08/28 03:20:46;;;;;;;1.08;0.30;;;28.80;35.70;;;;;;5090187;28;20032;-70
2022/08/28 03:23:29;;;;;;;0.90;0.10;;;28.80;35.70;;;;;;5097863;28;20040;-68
2022/08/28 03:26:00;;;;;;;1.10;0.20;;;28.80;35.80;;;;;;5089846;28;20146;-66
2022/08/28 03:28:29;;;;;;;0.50;0.10;;;28.70;35.80;;;;;;5089086;28;20040;-67
2022/08/28 03:30:56;;;;;;;0.40;0.10;;;28.70;35.90;;;;;;5089813;28;20032;-65
2022/08/28 03:33:24;;;;;;;0.68;0.30;;;28.70;35.90;;;;;;5092430;28;20040;-66
2022/08/28 03:35:51;;;;;;;2.60;0.10;;;28.70;35.90;;;;;;5089775;28;20040;-65
2022/08/28 03:38:19;;;;;;;1.17;0.30;;;28.70;36.00;;;;;;5089176;28;20032;-65
2022/08/28 03:40:47;;;;;;;1.75;0.10;;;28.70;36.10;;;;;;5089411;28;20111;-65
2022/08/28 03:43:19;;;;;;;1.08;0.10;;;28.70;36.20;;;;;;5078322;28;20042;-66
2022/08/28 03:45:52;;;;;;;1.38;0.10;;;28.60;36.10;;;;;;5071150;28;20056;-66
2022/08/28 03:48:20;;;;;;;1.73;0.20;;;28.70;36.20;;;;;;5091631;28;20076;-65
2022/08/28 03:50:47;;;;;;;0.20;0.20;;;28.60;36.20;;;;;;5070227;28;20089;-65
2022/08/28 03:53:14;;;;;;;0.40;0.20;;;28.60;36.10;;;;;;5097984;28;20191;-65
2022/08/28 03:55:42;;;;;;;1.65;0.47;;;28.60;36.20;;;;;;5088925;28;20048;-65
2022/08/28 03:58:09;;;;;;;2.92;0.10;;;28.70;36.30;;;;;;5089284;28;20123;-65
2022/08/28 04:00:39;;;;;;;2.22;0.30;;;28.60;36.30;;;;;;5089147;28;20063;-66
2022/08/28 04:03:06;;;;;;;0.20;0.20;;;28.70;36.40;;;;;;5089304;28;20058;-66
2022/08/28 04:05:34;;;;;;;0.60;0.20;;;28.70;36.50;;;;;;5088704;28;20097;-65
2022/08/28 04:08:01;;;;;;;2.33;0.20;;;28.70;36.40;;;;;;5089045;28;20464;-67
2022/08/28 04:10:30;;;;;;;2.22;0.20;;;28.70;36.30;;;;;;5088514;28;20036;-67
2022/08/28 04:12:57;;;;;;;3.33;0.10;;;28.60;36.30;;;;;;5070980;28;20067;-67
2022/08/28 04:15:24;;;;;;;2.03;0.47;;;28.50;36.40;;;;;;5091269;28;20071;-68
2022/08/28 04:17:53;;;;;;;1.35;0.20;;;28.40;36.40;;;;;;5094676;28;20435;-67
2022/08/28 04:20:21;;;;;;;0.82;0.20;;;28.30;36.50;;;;;;5088558;28;20152;-67
2022/08/28 04:22:48;;;;;;;8.50;1.40;;;28.30;36.70;;;;;;5097137;28;20358;-68
2022/08/28 04:25:15;;;;;;;2.00;0.28;;;28.20;36.70;;;;;;5088332;28;20105;-68
2022/08/28 04:27:43;;;;;;;2.10;0.22;;;28.20;36.90;;;;;;5088867;28;20048;-68
2022/08/28 04:30:10;;;;;;;0.30;0.15;;;28.20;36.90;;;;;;5047247;28;20048;-70
2022/08/28 04:32:38;;;;;;;0.65;0.20;;;28.20;37.00;;;;;;5088827;28;20514;-66
2022/08/28 04:35:10;;;;;;;4.63;0.22;;;28.10;37.00;;;;;;5088394;28;20854;-67
2022/08/28 04:37:38;;;;;;;1.55;0.68;;;28.00;37.10;;;;;;5088561;28;20047;-66
2022/08/28 04:40:08;;;;;;;2.47;0.38;;;28.00;37.20;;;;;;5088196;28;20520;-67
2022/08/28 04:42:35;;;;;;;2.13;0.10;;;28.00;37.30;;;;;;5096903;28;20127;-67
2022/08/28 04:45:02;;;;;;;1.65;0.22;;;27.90;37.30;;;;;;5088370;28;20052;-68
2022/08/28 04:47:30;;;;;;;2.85;0.30;;;27.80;37.40;;;;;;5088255;28;20106;-69
2022/08/28 04:49:57;;;;;;;0.60;0.55;;;27.80;37.50;;;;;;5088173;28;20582;-68
2022/08/28 04:52:25;;;;;;;1.77;0.13;;;27.80;37.60;;;;;;5088977;28;20051;-68
2022/08/28 04:54:52;;;;;;;3.35;0.22;;;27.70;37.70;;;;;;5101254;28;20122;-67
2022/08/28 04:57:19;;;;;;;1.33;0.80;;;27.70;37.70;;;;;;5087801;28;20406;-67
2022/08/28 04:59:46;;;;;;;4.20;0.75;;;27.70;37.80;;;;;;5087853;28;20042;-68
2022/08/28 05:02:13;;;;;;;1.48;0.55;;;27.60;37.80;;;;;;5087421;28;20218;-67
2022/08/28 05:04:40;;;;;;;5.90;0.20;;;27.60;37.90;;;;;;5087851;28;20122;-67
2022/08/28 05:07:07;;;;;;;3.15;0.20;;;27.60;37.90;;;;;;5088152;28;20393;-67
2022/08/28 05:09:36;;;;;;;1.52;0.20;;;27.60;38.00;;;;;;5088635;28;20040;-69
2022/08/28 05:12:04;;;;;;;0.95;0.10;;;27.50;38.00;;;;;;5087979;28;20501;-72
2022/08/28 05:14:32;;;;;;;1.35;0.20;;;27.50;38.20;;;;;;5087829;28;20040;-69
2022/08/28 05:16:59;;;;;;;1.45;0.88;;;27.50;38.20;;;;;;5089951;28;20404;-70
2022/08/28 05:19:27;;;;;;;3.72;0.10;;;27.50;38.30;;;;;;5084587;28;20046;-70
2022/08/28 05:21:55;;;;;;;5.55;0.20;;;27.50;39.00;;;;;;5089468;28;20457;-65
2022/08/28 05:24:22;;;;;;;5.25;0.32;;;27.40;38.40;;;;;;5088149;28;20508;-71
2022/08/28 05:26:50;;;;;;;6.47;0.35;;;27.30;38.40;;;;;;5087139;28;20523;-67
2022/08/28 05:29:17;;;;;;;2.92;0.30;;;27.20;38.60;;;;;;5087581;28;20044;-70
2022/08/28 05:31:45;;;;;;;1.52;0.20;;;27.10;38.70;;;;;;5084585;28;20688;-70
2022/08/28 05:34:12;;;;;;;3.85;0.30;;;27.10;38.80;;;;;;5088003;28;20042;-70
2022/08/28 05:36:39;;;;;;;2.15;0.68;;;27.00;39.00;;;;;;5095628;28;20059;-69
2022/08/28 05:39:08;;;;;;;1.08;0.10;;;27.00;39.10;;;;;;5089234;28;20044;-70
2022/08/28 05:41:36;;;;;;;1.85;0.20;;;26.90;39.20;;;;;;5087905;28;20594;-70
2022/08/28 05:44:07;;;;;;;1.13;0.10;;;26.90;39.30;;;;;;5089116;28;20044;-71
2022/08/28 05:46:37;;;;;;;3.80;0.52;;;26.90;39.50;;;;;;5088023;28;20080;-68
2022/08/28 05:49:04;;;;;;;0.80;0.20;;;26.80;39.60;;;;;;5089972;28;20446;-71
2022/08/28 05:51:33;;;;;;;3.75;0.28;;;26.70;39.60;;;;;;5096111;28;20427;-66
2022/08/28 05:54:00;;;;;;;3.28;0.17;;;26.70;39.70;;;;;;5069051;28;20043;-68
2022/08/28 05:56:29;;;;;;;4.32;0.20;;;26.70;39.80;;;;;;5086633;28;20152;-68
2022/08/28 05:58:56;;;;;;;4.32;0.30;;;26.60;39.90;;;;;;5082656;28;20044;-71
2022/08/28 06:01:27;;;;;;;2.95;0.25;;;26.60;40.00;;;;;;5095422;28;20078;-71
2022/08/28 06:03:57;;;;;;;2.97;0.30;;;26.60;40.20;;;;;;5095757;28;20044;-78
2022/08/28 06:06:25;;;;;;;1.25;0.25;;;26.50;40.20;;;;;;5082579;28;20172;-81
2022/08/28 06:08:57;;;;;;;3.35;0.35;;;26.40;40.30;;;;;;5085414;28;20040;-80
2022/08/28 06:11:24;;;;;;;0.85;0.15;;;26.40;40.40;;;;;;5082071;28;20044;-81
2022/08/28 06:13:52;;;;;;;2.88;0.13;;;26.40;40.50;;;;;;5085597;28;20047;-77
2022/08/28 06:16:19;;;;;;;0.35;0.20;;;26.40;40.50;;;;;;5092711;28;20046;-76
2022/08/28 06:18:47;;;;;;;142.60;10.30;;;26.30;40.60;;;;;;5093676;28;20036;-74
2022/08/28 06:21:14;;;;;;;6.80;0.30;;;26.30;40.90;;;;;;5109834;28;20038;-84
2022/08/28 06:23:43;;;;;;;1.70;0.20;;;26.30;41.00;;;;;;5113725;28;20039;-86
2022/08/28 06:26:10;;;;;;;1.63;0.28;;;26.30;41.10;;;;;;5115229;28;20142;-88
2022/08/28 06:28:37;;;;;;;1.38;0.10;;;26.40;41.20;;;;;;5117987;28;20032;-86
2022/08/28 06:31:06;;;;;;;3.13;0.22;;;26.50;41.30;;;;;;5117599;28;20059;-85
2022/08/28 06:33:33;;;;;;;2.50;0.20;;;26.50;41.30;;;;;;5115700;28;20593;-85
2022/08/28 06:36:04;;;;;;;3.83;0.20;;;26.60;41.40;;;;;;5114614;28;20183;-87
2022/08/28 06:38:31;;;;;;;0.80;0.10;;;26.70;41.40;;;;;;5094512;28;20063;-84
2022/08/28 06:40:58;;;;;;;0.82;0.20;;;26.70;41.30;;;;;;5114668;28;20119;-85
2022/08/28 06:43:29;;;;;;;1.13;0.10;;;26.70;41.20;;;;;;5116361;28;20044;-84
2022/08/28 06:45:57;;;;;;;1.63;0.10;;;26.80;41.80;;;;;;5114831;28;20047;-81
2022/08/28 06:48:27;;;;;;;0.77;0.38;;;26.90;41.20;;;;;;5104723;28;20557;-82
2022/08/28 06:50:56;;;;;;;1.27;0.28;;;26.90;41.10;;;;;;5098491;28;20062;-83
2022/08/28 06:53:26;;;;;;;0.60;0.30;;;27.00;41.10;;;;;;5098593;28;20039;-82
2022/08/28 06:56:01;;;;;;;0.63;0.10;;;27.10;41.00;;;;;;5116223;28;20545;-81
2022/08/28 06:58:29;;;;;;;4.70;0.20;;;27.10;41.00;;;;;;5110854;28;20093;-82
2022/08/28 07:01:05;;;;;;;0.20;0.10;;;27.10;40.90;;;;;;5116720;28;20047;-84
2022/08/28 07:03:32;;;;;;;0.70;0.10;;;27.20;40.90;;;;;;5114264;28;20051;-81
2022/08/28 07:06:01;;;;;;;1.25;0.10;;;27.20;40.80;;;;;;5114219;28;20031;-81
2022/08/28 07:08:31;;;;;;;3.15;1.13;;;27.30;40.90;;;;;;5110472;28;20105;-82
2022/08/28 07:10:59;;;;;;;1.70;0.17;;;27.30;40.80;;;;;;5095185;28;20122;-82
2022/08/28 07:13:26;;;;;;;0.75;0.10;;;27.40;40.80;;;;;;5114508;28;20049;-82
2022/08/28 07:15:53;;;;;;;1.33;0.10;;;27.40;40.70;;;;;;5119454;28;20111;-81
2022/08/28 07:18:20;;;;;;;0.10;0.10;;;27.40;40.70;;;;;;5119937;28;20512;-82
2022/08/28 07:20:56;;;;;;;0.22;0.10;;;27.50;40.70;;;;;;5116674;28;20829;-82
2022/08/28 07:23:23;;;;;;;0.40;0.10;;;27.50;40.60;;;;;;5097542;28;20044;-82
2022/08/28 07:25:52;;;;;;;0.95;0.10;;;27.50;40.50;;;;;;5096835;28;20059;-81
2022/08/28 07:28:19;;;;;;;0.55;0.10;;;27.60;40.50;;;;;;5097864;28;20044;-81
2022/08/28 07:30:56;;;;;;;0.55;0.55;;;27.60;40.50;;;;;;5118292;28;20039;-81
2022/08/28 07:33:23;;;;;;;2.00;0.10;;;27.70;40.50;;;;;;5116306;28;20061;-82
2022/08/28 07:35:50;;;;;;;0.93;0.10;;;27.70;40.40;;;;;;5108019;28;20347;-81
2022/08/28 07:38:17;;;;;;;0.75;0.10;;;27.70;40.40;;;;;;5098350;28;20104;-81
2022/08/28 07:40:44;;;;;;;1.00;0.10;;;27.70;40.30;;;;;;5114071;28;20208;-82
2022/08/28 07:45:59;;;;;;;2.10;0.10;;;27.80;40.30;;;;;;5116079;28;20047;-82
2022/08/28 07:48:26;;;;;;;0.38;0.10;;;27.80;40.30;;;;;;5107267;28;20586;-84
2022/08/28 07:50:53;;;;;;;1.33;0.20;;;27.80;40.30;;;;;;5128272;28;20043;-83
2022/08/28 07:53:20;;;;;;;0.47;0.10;;;27.80;40.20;;;;;;5128504;28;20036;-83
2022/08/28 07:55:49;;;;;;;2.05;0.20;;;27.80;40.20;;;;;;5128529;28;20115;-83
2022/08/28 07:58:18;;;;;;;2.78;0.10;;;27.90;40.20;;;;;;5129773;28;20032;-84
2022/08/28 08:00:45;;;;;;;0.57;0.10;;;27.90;40.20;;;;;;5126547;28;20067;-81
2022/08/28 08:03:12;;;;;;;0.20;0.10;;;27.90;40.20;;;;;;5106213;28;20051;-81
2022/08/28 08:05:39;;;;;;;1.17;0.10;;;28.00;40.20;;;;;;5105623;28;20075;-82
2022/08/28 08:08:06;;;;;;;1.02;0.20;;;28.00;40.10;;;;;;5093493;28;20043;-82
2022/08/28 08:10:33;;;;;;;0.17;0.17;;;28.00;40.10;;;;;;5093208;28;20044;-80
2022/08/28 08:13:00;;;;;;;0.30;0.20;;;28.00;40.10;;;;;;5093242;28;20081;-82
2022/08/28 08:15:28;;;;;;;0.15;0.10;;;28.00;40.00;;;;;;5099050;28;20507;-81
2022/08/28 08:17:55;;;;;;;0.73;0.20;;;28.10;40.00;;;;;;5113692;28;20132;-81
2022/08/28 08:20:22;;;;;;;1.42;0.20;;;28.10;40.00;;;;;;5073328;28;20064;-81
2022/08/28 08:22:49;;;;;;;0.20;0.10;;;28.10;40.60;;;;;;5054914;28;20090;-82
2022/08/28 08:25:17;;;;;;;0.68;0.10;;;28.10;40.00;;;;;;5090639;28;20489;-81
2022/08/28 08:27:44;;;;;;;1.45;0.10;;;28.10;39.90;;;;;;5094339;28;20050;-81
2022/08/28 08:30:12;;;;;;;0.90;0.10;;;28.20;40.00;;;;;;5108171;28;20037;-84
2022/08/28 08:32:40;;;;;;;4.25;0.10;;;28.20;40.00;;;;;;5112564;28;20065;-84
2022/08/28 08:35:08;;;;;;;2.42;0.20;;;28.20;39.90;;;;;;5127043;28;20108;-85
2022/08/28 08:37:35;;;;;;;2.05;0.10;;;28.20;39.90;;;;;;5112376;28;20088;-86
2022/08/28 08:40:02;;;;;;;1.88;0.20;;;28.20;39.90;;;;;;5125081;28;20032;-87
2022/08/28 08:42:32;;;;;;;0.50;0.43;;;28.20;39.90;;;;;;5131704;28;20103;-85
2022/08/28 08:45:02;;;;;;;2.08;0.10;;;28.20;39.90;;;;;;5125634;28;20059;-83
2022/08/28 08:47:36;;;;;;;0.10;0.10;;;28.30;39.90;;;;;;5131696;28;20039;-86
2022/08/28 08:50:09;;;;;;;0.63;0.10;;;28.30;39.90;;;;;;5132009;28;20066;-87
2022/08/28 08:52:44;;;;;;;0.82;0.30;;;28.30;39.90;;;;;;5124427;28;20040;-84
2022/08/28 08:55:24;;;;;;;2.47;0.45;;;28.30;39.90;;;;;;5131461;28;20061;-85
2022/08/28 08:57:57;;;;;;;0.65;0.10;;;28.40;39.90;;;;;;5131878;28;20054;-84
2022/08/28 09:00:25;;;;;;;0.25;0.10;;;28.40;39.90;;;;;;5116299;28;20071;-82
2022/08/28 09:03:01;;;;;;;0.45;0.15;;;28.40;39.90;;;;;;5111098;28;20074;-85
2022/08/28 09:05:42;;;;;;;2.40;0.20;;;28.40;39.90;;;;;;5120130;28;20036;-85
2022/08/28 09:08:21;;;;;;;1.85;0.10;;;28.40;39.80;;;;;;5131983;28;20044;-86
2022/08/28 09:10:58;;;;;;;0.75;0.20;;;28.40;39.80;;;;;;5130845;28;20043;-83
2022/08/28 09:13:31;;;;;;;1.65;0.10;;;28.40;39.80;;;;;;5132290;28;20042;-84
2022/08/28 09:16:00;;;;;;;0.90;0.65;;;28.40;39.80;;;;;;5136053;28;20020;-82
2022/08/28 09:18:32;;;;;;;0.32;0.10;;;28.40;39.80;;;;;;5138509;28;20031;-86
2022/08/28 09:21:00;;;;;;;1.63;0.20;;;28.50;39.90;;;;;;5138063;28;20638;-85
2022/08/28 09:23:28;;;;;;;3.35;0.30;;;28.40;39.80;;;;;;5132685;28;20074;-86
2022/08/28 09:25:57;;;;;;;3.22;0.20;;;28.50;39.80;;;;;;5114148;28;20054;-83
2022/08/28 09:28:29;;;;;;;1.33;0.20;;;28.50;39.90;;;;;;5096485;28;20103;-85
2022/08/28 09:31:00;;;;;;;3.03;1.08;;;28.50;39.80;;;;;;5108246;28;20040;-82
2022/08/28 09:33:29;;;;;;;1.08;0.17;;;28.50;39.80;;;;;;5106087;28;20067;-84
2022/08/28 09:35:56;;;;;;;0.98;0.15;;;28.50;39.80;;;;;;5106928;28;20059;-84
2022/08/28 09:38:25;;;;;;;1.50;0.20;;;28.50;39.80;;;;;;5106906;28;20048;-83
2022/08/28 09:43:54;;;;;;;2.42;0.20;;;28.60;39.80;;;;;;5088854;28;20128;-83
2022/08/28 09:46:27;;;;;;;2.90;0.20;;;28.60;39.90;;;;;;5092408;28;20040;-83
2022/08/28 09:49:08;;;;;;;0.30;0.10;;;28.60;39.90;;;;;;5097018;28;20051;-84
2022/08/28 09:51:38;;;;;;;0.13;0.13;;;28.60;40.40;;;;;;5133109;28;20051;-83
2022/08/28 09:54:15;;;;;;;0.60;0.10;;;28.60;39.80;;;;;;5133215;28;20040;-84
2022/08/28 09:56:44;;;;;;;0.73;0.10;;;28.60;39.80;;;;;;5115390;28;20485;-81
2022/08/28 09:59:14;;;;;;;0.85;0.75;;;28.60;40.40;;;;;;5119541;28;20032;-83
2022/08/28 10:01:57;;;;;;;1.45;0.38;;;28.70;39.80;;;;;;5123564;28;20071;-84
2022/08/28 10:04:40;;;;;;;0.85;0.25;;;28.70;39.80;;;;;;5114728;28;20108;-84
2022/08/28 10:07:12;;;;;;;1.05;0.15;;;28.70;39.80;;;;;;5132571;28;20557;-83
2022/08/28 10:09:51;;;;;;;1.38;0.17;;;28.70;40.40;;;;;;5126894;28;20066;-84
2022/08/28 10:12:31;;;;;;;0.47;0.10;;;28.70;39.70;;;;;;5129623;28;20043;-84
2022/08/28 10:15:04;;;;;;;3.50;0.40;;;28.70;39.70;;;;;;5124743;28;20084;-82
2022/08/28 10:17:39;;;;;;;1.48;0.20;;;28.80;39.70;;;;;;5097227;28;20067;-82
2022/08/28 10:20:09;;;;;;;;;;;28.70;39.70;;;;;;5096198;28;20047;-83
2022/08/28 10:22:44;;;;;;;1.60;0.20;;;28.70;39.60;;;;;;5094478;28;20268;-82
2022/08/28 10:25:29;;;;;;;0.20;0.10;;;28.80;39.70;;;;;;5094806;28;20051;-82
2022/08/28 10:28:23;;;;;;;0.98;0.20;;;28.80;39.70;;;;;;5094894;28;20423;-82
2022/08/28 10:30:59;;;;;;;2.63;0.28;;;28.80;39.60;;;;;;5108128;28;20138;-81
2022/08/28 10:33:43;;;;;;;0.30;0.20;;;28.80;39.60;;;;;;5115727;28;20048;-83
2022/08/28 10:36:16;;;;;;;1.80;0.22;;;28.90;39.60;;;;;;5130178;28;20496;-87
2022/08/28 10:38:48;;;;;;;0.10;0.10;;;28.90;39.60;;;;;;5125391;28;20032;-85
2022/08/28 10:41:21;;;;;;;0.15;0.15;;;28.90;39.60;;;;;;5129027;28;20574;-83
2022/08/28 10:43:51;;;;;;;1.38;0.57;;;29.00;39.60;;;;;;5126769;28;20046;-84
2022/08/28 10:46:23;;;;;;;0.20;0.20;;;29.00;39.60;;;;;;5135125;28;20035;-87
2022/08/28 10:48:54;;;;;;;0.70;0.10;;;29.00;39.60;;;;;;5138016;28;20047;-87
2022/08/28 10:51:31;;;;;;;1.80;0.20;;;29.00;39.50;;;;;;5138572;28;20118;-86
2022/08/28 10:54:03;;;;;;;0.30;0.20;;;29.00;40.10;;;;;;5138513;28;20431;-86
2022/08/28 10:56:42;;;;;;;2.92;0.38;;;29.00;39.50;;;;;;5137607;28;20035;-86
2022/08/28 10:59:11;;;;;;;2.83;0.20;;;29.10;39.50;;;;;;5136443;28;20529;-87
2022/08/28 11:01:41;;;;;;;1.10;0.30;;;29.10;39.50;;;;;;5138255;28;20371;-85
2022/08/28 11:04:20;;;;;;;0.30;0.25;;;29.10;39.50;;;;;;5133618;28;20035;-85
2022/08/28 11:06:51;;;;;;;0.63;0.20;;;29.10;39.40;;;;;;5111016;28;20048;-83
2022/08/28 11:09:30;;;;;;;0.40;0.30;;;29.20;40.10;;;;;;5108017;28;20055;-85
2022/08/28 11:12:00;;;;;;;1.30;0.20;;;29.20;39.40;;;;;;5113504;28;20036;-85
2022/08/28 11:14:31;;;;;;;1.00;0.30;;;29.20;39.50;;;;;;5090213;28;20112;-85
2022/08/28 11:17:01;;;;;;;5.93;0.30;;;29.30;39.50;;;;;;5127031;28;20479;-84
2022/08/28 11:19:55;;;;;;;0.82;0.20;;;29.30;39.50;;;;;;5118562;28;20039;-83
2022/08/28 11:22:26;;;;;;;0.88;0.50;;;29.30;39.30;;;;;;5117459;28;20039;-82
2022/08/28 11:25:02;;;;;;;1.27;0.20;;;29.30;40.00;;;;;;5100910;28;20842;-83
2022/08/28 11:27:33;;;;;;;0.32;0.20;;;29.30;39.30;;;;;;5107102;28;20044;-84
2022/08/28 11:30:30;;;;;;;0.45;0.45;;;29.40;39.30;;;;;;5092785;28;20117;-81
2022/08/28 11:33:06;;;;;;;0.60;0.30;;;29.40;39.90;;;;;;5093774;28;20058;-81
2022/08/28 11:35:44;;;;;;;1.30;0.20;;;29.40;39.30;;;;;;5110659;28;20594;-81
2022/08/28 11:38:12;;;;;;;0.73;0.10;;;29.40;39.20;;;;;;5111301;28;20119;-82
2022/08/28 11:40:56;;;;;;;0.52;0.20;;;29.40;39.80;;;;;;5117608;28;20099;-83
2022/08/28 11:43:39;;;;;;;0.20;0.10;;;29.50;39.10;;;;;;5115474;28;20151;-83
2022/08/28 11:46:23;;;;;;;0.63;0.20;;;29.50;39.10;;;;;;5114647;28;20055;-83
2022/08/28 11:48:52;;;;;;;1.20;0.10;;;29.50;39.10;;;;;;5116627;28;20044;-82
2022/08/28 11:51:43;;;;;;;0.22;0.20;;;29.50;39.10;;;;;;5119325;28;20040;-84
2022/08/28 11:54:28;;;;;;;0.98;0.22;;;29.60;39.10;;;;;;5104208;28;20032;-83
2022/08/28 11:57:06;;;;;;;0.88;0.55;;;29.60;39.10;;;;;;5084228;28;20028;-86
2022/08/28 11:59:54;;;;;;;0.20;0.10;;;29.60;39.00;;;;;;5116965;28;20046;-85
2022/08/28 12:02:54;;;;;;;0.52;0.52;;;29.70;39.00;;;;;;5087662;28;20126;-83
2022/08/28 12:05:44;;;;;;;0.25;0.20;;;29.70;38.90;;;;;;5110902;28;20040;-83
2022/08/28 12:08:33;;;;;;;0.50;0.20;;;29.80;39.00;;;;;;5106483;28;20413;-85
2022/08/28 12:11:00;;;;;;;0.60;0.10;;;29.70;38.90;;;;;;5111894;28;20044;-84
2022/08/28 12:13:48;;;;;;;0.55;0.10;;;29.80;38.90;;;;;;5107902;28;20567;-83
2022/08/28 12:16:16;;;;;;;1.00;1.00;;;29.80;38.80;;;;;;5108203;28;20860;-83
2022/08/28 12:19:00;;;;;;;0.47;0.10;;;29.80;38.80;;;;;;5104672;28;20043;-83
2022/08/28 12:21:29;;;;;;;0.43;0.20;;;29.90;38.80;;;;;;5107343;28;20044;-84
2022/08/28 12:24:01;;;;;;;1.17;0.30;;;29.90;38.80;;;;;;5109603;28;20123;-85
2022/08/28 12:26:34;;;;;;;0.17;0.10;;;29.90;38.70;;;;;;5106985;28;20036;-83
2022/08/28 12:29:04;;;;;;;0.35;0.10;;;29.90;38.70;;;;;;5102604;28;20067;-83
2022/08/28 12:32:11;;;;;;;0.43;0.10;;;30.00;38.70;;;;;;5114308;28;20036;-86
2022/08/28 12:34:46;;;;;;;0.40;0.40;;;30.00;38.60;;;;;;5115467;28;20047;-87
2022/08/28 12:37:31;;;;;;;1.08;0.20;;;30.00;38.60;;;;;;5117158;28;20024;-86
2022/08/28 12:40:07;;;;;;;2.08;0.10;;;30.10;38.60;;;;;;5116579;28;20086;-86
2022/08/28 12:42:38;;;;;;;0.10;0.10;;;30.00;38.60;;;;;;5116342;28;20101;-84
2022/08/28 12:45:09;;;;;;;1.10;0.10;;;30.00;38.50;;;;;;5113911;28;20448;-87
2022/08/28 12:47:38;;;;;;;0.93;0.10;;;30.00;38.50;;;;;;5115425;28;20122;-86
2022/08/28 12:50:24;;;;;;;0.90;0.40;;;30.10;38.50;;;;;;5116459;28;20016;-87
2022/08/28 12:52:54;;;;;;;1.73;0.25;;;30.20;38.40;;;;;;5115063;28;20036;-85
2022/08/28 12:55:21;;;;;;;0.77;0.10;;;30.10;38.40;;;;;;5114800;28;20078;-86
2022/08/28 12:57:48;;;;;;;1.38;0.32;;;30.10;38.30;;;;;;5113773;28;20047;-86
2022/08/28 13:00:19;;;;;;;1.38;0.10;;;30.20;38.40;;;;;;5115434;28;20050;-86
2022/08/28 13:02:50;;;;;;;1.65;0.20;;;30.20;38.30;;;;;;5115500;28;20028;-87
2022/08/28 13:05:31;;;;;;;1.85;0.30;;;30.20;38.20;;;;;;5115813;28;20096;-86
2022/08/28 13:08:01;;;;;;;1.38;0.32;;;30.20;38.20;;;;;;5115029;28;20040;-86
2022/08/28 13:10:31;;;;;;;0.28;0.10;;;30.20;38.20;;;;;;5114441;28;20040;-87
2022/08/28 13:13:01;;;;;;;0.20;0.20;;;30.30;38.20;;;;;;5126915;28;20073;-86
2022/08/28 13:15:46;;;;;;;4.32;1.40;;;30.30;38.20;;;;;;5135801;28;20039;-85